createdAt,value
2017-05-04T00:02:05.489Z,12.62
2017-05-04T00:04:36.433Z,12.58
2017-05-04T00:07:06.439Z,12.42
2017-05-04T00:09:37.403Z,13.76
2017-05-04T00:12:07.392Z,13.98
2017-05-04T00:14:38.298Z,13.50
2017-05-04T00:17:08.292Z,12.84
2017-05-04T00:19:38.484Z,13.58
2017-05-04T00:22:08.490Z,13.36
2017-05-04T00:24:39.444Z,14.48
2017-05-04T00:27:09.438Z,14.54
2017-05-04T00:29:40.384Z,15.62
2017-05-04T00:32:10.390Z,17.34
2017-05-04T00:34:41.369Z,16.86
2017-05-04T00:37:11.341Z,17.10
2017-05-04T00:39:42.229Z,17.48
2017-05-04T00:42:12.214Z,17.32
2017-05-04T00:44:42.434Z,17.08
2017-05-04T00:47:12.428Z,18.72
2017-05-04T00:49:43.375Z,18.76
2017-05-04T00:52:14.100Z,21.20
2017-05-04T00:54:45.155Z,20.70
2017-05-04T00:57:15.143Z,22.28
2017-05-04T00:59:45.344Z,21.30
2017-05-04T01:02:15.332Z,22.38
2017-05-04T01:04:45.516Z,24.54
2017-05-04T01:07:15.500Z,22.94
2017-05-04T01:09:45.652Z,26.56
2017-05-04T01:12:15.639Z,23.78
2017-05-04T01:14:45.892Z,24.32
2017-05-04T01:17:15.880Z,25.50
2017-05-04T01:19:46.127Z,25.18
2017-05-04T01:22:17.260Z,27.00
2017-05-04T01:24:48.302Z,27.02
2017-05-04T01:27:19.033Z,28.40
2017-05-04T01:29:50.093Z,28.66
2017-05-04T01:32:20.096Z,28.04
2017-05-04T01:34:50.984Z,29.70
2017-05-04T01:37:20.974Z,30.98
2017-05-04T01:39:51.082Z,30.28
2017-05-04T01:42:21.078Z,29.70
2017-05-04T01:44:51.954Z,29.76
2017-05-04T01:47:21.957Z,31.52
2017-05-04T01:49:53.495Z,30.92
2017-05-04T01:52:23.480Z,30.36
2017-05-04T01:54:54.340Z,30.40
2017-05-04T01:57:24.353Z,31.46
2017-05-04T01:59:55.288Z,33.00
2017-05-04T02:02:26.017Z,32.70
2017-05-04T02:04:56.873Z,33.20
2017-05-04T02:07:26.856Z,31.56
2017-05-04T02:09:57.313Z,31.88
2017-05-04T02:12:27.257Z,34.26
2017-05-04T02:14:57.448Z,33.16
2017-05-04T02:17:27.442Z,34.04
2017-05-04T02:19:59.009Z,33.48
2017-05-04T02:22:29.016Z,31.40
2017-05-04T02:24:59.987Z,33.34
2017-05-04T02:27:29.996Z,32.82
2017-05-04T02:30:00.319Z,33.94
2017-05-04T02:32:30.308Z,34.26
2017-05-04T02:35:01.249Z,34.54
2017-05-04T02:37:31.989Z,31.22
2017-05-04T02:40:02.217Z,31.28
2017-05-04T02:42:32.209Z,35.16
2017-05-04T02:45:03.052Z,32.42
2017-05-04T02:47:33.782Z,34.04
2017-05-04T02:50:04.737Z,35.02
2017-05-04T02:52:34.729Z,35.14
2017-05-04T02:55:05.699Z,34.98
2017-05-04T02:57:35.702Z,36.52
2017-05-04T03:00:06.025Z,33.92
2017-05-04T03:02:36.749Z,34.34
2017-05-04T03:05:06.981Z,35.42
2017-05-04T03:07:37.002Z,33.46
2017-05-04T03:10:07.221Z,36.00
2017-05-04T03:12:37.225Z,35.38
2017-05-04T03:15:08.277Z,35.70
2017-05-04T03:17:38.276Z,37.00
2017-05-04T03:20:09.128Z,36.74
2017-05-04T03:22:39.120Z,36.12
2017-05-04T03:25:10.085Z,37.88
2017-05-04T03:27:40.078Z,36.70
2017-05-04T03:30:11.131Z,36.90
2017-05-04T03:32:41.125Z,37.12
2017-05-04T03:35:11.372Z,33.36
2017-05-04T03:37:41.350Z,36.02
2017-05-04T03:40:11.552Z,35.86
2017-05-04T03:42:41.584Z,33.92
2017-05-04T03:45:11.840Z,35.76
2017-05-04T03:47:41.824Z,34.30
2017-05-04T03:50:12.080Z,34.02
2017-05-04T03:52:42.118Z,36.76
2017-05-04T03:55:12.332Z,37.24
2017-05-04T03:57:42.312Z,36.28
2017-05-04T04:00:13.264Z,35.02
2017-05-04T04:02:43.996Z,36.20
2017-05-04T04:05:14.846Z,36.66
2017-05-04T04:07:44.824Z,35.26
2017-05-04T04:10:14.938Z,38.36
2017-05-04T04:12:45.604Z,35.70
2017-05-04T04:15:15.772Z,36.44
2017-05-04T04:17:45.751Z,35.18
2017-05-04T04:20:15.853Z,37.16
2017-05-04T04:22:46.568Z,36.50
2017-05-04T04:25:17.400Z,36.44
2017-05-04T04:27:47.391Z,37.10
2017-05-04T04:30:17.553Z,38.84
2017-05-04T04:32:48.276Z,39.42
2017-05-04T04:35:19.247Z,37.82
2017-05-04T04:37:49.224Z,36.64
2017-05-04T04:40:19.479Z,38.10
2017-05-04T04:42:49.468Z,43.24
2017-05-04T04:45:20.528Z,38.96
2017-05-04T04:47:50.530Z,40.28
2017-05-04T04:50:21.421Z,40.50
2017-05-04T04:52:51.413Z,37.20
2017-05-04T04:55:21.708Z,38.58
2017-05-04T04:57:51.701Z,38.02
2017-05-04T05:00:21.955Z,38.78
2017-05-04T05:02:51.947Z,37.82
2017-05-04T05:05:22.909Z,37.32
2017-05-04T05:07:52.907Z,39.50
2017-05-04T05:10:23.858Z,40.98
2017-05-04T05:12:53.850Z,41.98
2017-05-04T05:15:25.024Z,39.76
2017-05-04T05:17:55.020Z,39.72
2017-05-04T05:20:25.866Z,39.74
2017-05-04T05:22:56.580Z,39.30
2017-05-04T05:25:27.568Z,40.86
2017-05-04T05:27:58.823Z,38.34
2017-05-04T05:30:29.007Z,40.66
2017-05-04T05:32:58.988Z,40.10
2017-05-04T05:35:29.237Z,38.24
2017-05-04T05:37:59.235Z,40.40
2017-05-04T05:40:29.378Z,39.22
2017-05-04T05:42:59.363Z,37.48
2017-05-04T05:45:29.718Z,38.30
2017-05-04T05:47:59.709Z,38.10
2017-05-04T05:50:30.669Z,36.70
2017-05-04T05:53:00.680Z,35.46
2017-05-04T05:55:31.682Z,37.66
2017-05-04T05:58:01.668Z,39.36
2017-05-04T06:00:32.286Z,38.08
2017-05-04T06:03:02.387Z,38.12
2017-05-04T06:05:32.660Z,38.40
2017-05-04T06:08:02.667Z,38.80
2017-05-04T06:10:33.650Z,38.68
2017-05-04T06:13:04.376Z,39.30
2017-05-04T06:15:34.480Z,38.22
2017-05-04T06:18:05.237Z,38.88
2017-05-04T06:20:36.080Z,38.66
2017-05-04T06:23:06.068Z,36.70
2017-05-04T06:25:36.492Z,39.56
2017-05-04T06:28:06.494Z,36.50
2017-05-04T06:30:36.604Z,37.46
2017-05-04T06:33:06.601Z,37.88
2017-05-04T06:35:36.993Z,36.64
2017-05-04T06:38:07.519Z,39.40
2017-05-04T06:40:38.455Z,36.64
2017-05-04T07:51:21.972Z,36.62
2017-05-04T07:53:52.693Z,34.68
2017-05-04T07:56:23.644Z,34.86
2017-05-04T07:58:53.297Z,35.50
2017-05-04T08:01:23.496Z,34.96
2017-05-04T08:03:53.468Z,33.14
2017-05-04T08:06:24.417Z,33.78
2017-05-04T08:08:55.145Z,34.72
2017-05-04T08:11:26.024Z,33.56
2017-05-04T08:13:56.023Z,32.98
2017-05-04T08:16:26.229Z,35.10
2017-05-04T08:18:56.243Z,33.48
2017-05-04T08:21:26.758Z,32.56
2017-05-04T08:23:56.712Z,36.14
2017-05-04T08:26:28.547Z,34.00
2017-05-04T08:28:59.251Z,30.30
2017-05-04T08:31:30.117Z,31.72
2017-05-04T08:34:00.481Z,32.64
2017-05-04T08:36:31.010Z,34.52
2017-05-04T08:39:00.980Z,34.44
2017-05-04T08:41:31.216Z,34.10
2017-05-04T08:44:02.625Z,31.78
2017-05-04T08:46:32.868Z,33.80
2017-05-04T08:49:02.904Z,31.44
2017-05-04T08:51:33.117Z,32.86
2017-05-04T08:54:03.104Z,31.94
2017-05-04T08:56:33.277Z,37.10
2017-05-04T08:59:03.585Z,38.66
2017-05-04T09:01:34.617Z,33.38
2017-05-04T09:04:04.624Z,31.84
2017-05-04T09:06:34.845Z,30.44
2017-05-04T09:09:04.500Z,29.58
2017-05-04T09:11:34.592Z,29.50
2017-05-04T09:14:04.576Z,32.26
2017-05-04T09:16:34.901Z,29.42
2017-05-04T09:19:04.919Z,35.50
2017-05-04T09:21:35.765Z,32.28
2017-05-04T09:24:06.037Z,29.32
2017-05-04T09:26:36.127Z,30.60
2017-05-04T09:29:06.144Z,31.40
2017-05-04T09:31:36.595Z,30.44
2017-05-04T09:34:06.605Z,29.46
2017-05-04T09:36:36.820Z,28.78
2017-05-04T09:39:06.868Z,30.82
2017-05-04T09:41:38.555Z,30.96
2017-05-04T09:44:08.537Z,30.62
2017-05-04T09:46:39.897Z,28.28
2017-05-04T09:49:10.097Z,35.72
2017-05-04T09:51:40.456Z,38.50
2017-05-04T09:54:10.471Z,31.12
2017-05-04T09:56:40.708Z,29.90
2017-05-04T09:59:10.793Z,26.96
2017-05-04T10:01:40.928Z,28.44
2017-05-04T10:04:11.649Z,29.38
2017-05-04T10:06:42.708Z,36.12
2017-05-04T10:09:13.617Z,39.30
2017-05-04T10:11:45.039Z,33.84
2017-05-04T10:14:15.979Z,33.70
2017-05-04T10:16:46.104Z,28.88
2017-05-04T10:19:16.820Z,28.90
2017-05-04T10:21:47.931Z,30.46
2017-05-04T10:24:18.134Z,31.72
2017-05-04T10:26:49.559Z,26.96
2017-05-04T10:29:19.616Z,27.14
2017-05-04T10:31:50.125Z,27.14
2017-05-04T10:34:22.736Z,27.34
2017-05-04T10:36:53.139Z,27.64
2017-05-04T10:39:24.150Z,27.24
2017-05-04T10:41:53.813Z,25.60
2017-05-04T10:44:23.815Z,26.26
2017-05-04T10:46:53.801Z,25.74
2017-05-04T10:49:24.749Z,25.52
2017-05-04T10:51:55.855Z,22.88
2017-05-04T10:54:27.241Z,24.84
2017-05-04T10:56:58.388Z,24.44
2017-05-04T10:59:29.831Z,25.72
2017-05-04T11:02:00.046Z,24.00
2017-05-04T11:04:31.219Z,26.54
2017-05-04T11:07:01.509Z,21.40
2017-05-04T11:09:31.887Z,23.42
2017-05-04T11:12:02.149Z,23.18
2017-05-04T11:14:33.001Z,23.76
2017-05-04T11:17:03.516Z,25.12
2017-05-04T11:19:34.772Z,28.48
2017-05-04T11:22:05.429Z,25.10
2017-05-04T11:24:37.001Z,26.60
2017-05-04T11:27:07.286Z,25.54
2017-05-04T11:29:38.530Z,25.12
2017-05-04T11:32:08.670Z,26.12
2017-05-04T11:34:39.100Z,25.04
2017-05-04T11:37:09.141Z,23.94
2017-05-04T11:39:39.476Z,27.42
2017-05-04T11:42:10.840Z,27.06
2017-05-04T11:44:41.796Z,29.10
2017-05-04T11:47:12.580Z,33.30
2017-05-04T11:49:43.794Z,31.78
2017-05-04T11:52:14.491Z,29.84
2017-05-04T11:54:45.444Z,26.30
2017-05-04T11:57:15.442Z,24.84
2017-05-04T11:59:46.397Z,25.42
2017-05-04T12:02:16.388Z,23.86
2017-05-04T12:04:46.776Z,27.26
2017-05-04T12:07:16.992Z,26.96
2017-05-04T12:09:48.227Z,26.20
2017-05-04T12:12:18.484Z,23.84
2017-05-04T12:14:49.592Z,23.36
2017-05-04T12:17:19.804Z,22.78
2017-05-04T12:19:49.995Z,23.10
2017-05-04T12:22:19.998Z,21.14
2017-05-04T12:24:51.958Z,21.90
2017-05-04T12:27:22.041Z,21.00
2017-05-04T12:29:52.893Z,24.18
2017-05-04T12:32:24.688Z,20.88
2017-05-04T12:34:55.749Z,23.02
2017-05-04T12:37:25.869Z,23.50
2017-05-04T12:39:56.305Z,19.08
2017-05-04T12:42:26.810Z,19.38
2017-05-04T12:44:57.125Z,18.94
2017-05-04T12:47:27.116Z,18.44
2017-05-04T12:49:58.090Z,19.22
2017-05-04T12:52:29.549Z,19.08
2017-05-04T12:54:59.788Z,19.44
2017-05-04T12:57:29.464Z,17.98
2017-05-04T12:59:59.813Z,19.14
2017-05-04T13:02:30.001Z,20.36
2017-05-04T13:05:01.269Z,18.40
2017-05-04T13:07:31.621Z,19.12
2017-05-04T13:10:02.637Z,20.82
2017-05-04T13:12:32.645Z,21.22
2017-05-04T13:15:03.515Z,17.76
2017-05-04T13:17:33.688Z,19.56
2017-05-04T13:20:05.733Z,18.22
2017-05-04T13:22:36.657Z,17.74
2017-05-04T13:25:07.527Z,19.32
2017-05-04T13:27:38.450Z,19.16
2017-05-04T13:30:08.706Z,17.82
2017-05-04T13:32:39.249Z,20.40
2017-05-04T13:35:10.549Z,19.66
2017-05-04T13:37:41.771Z,18.80
2017-05-04T13:40:13.271Z,21.46
2017-05-04T13:42:43.500Z,20.22
2017-05-04T13:45:14.509Z,20.50
2017-05-04T13:47:45.245Z,21.98
2017-05-04T13:50:15.612Z,20.60
2017-05-04T13:52:46.599Z,21.02
2017-05-04T13:55:17.127Z,20.22
2017-05-04T13:57:48.796Z,21.36
2017-05-04T14:00:20.516Z,22.76
2017-05-04T14:02:51.373Z,19.62
2017-05-04T14:05:22.516Z,22.20
2017-05-04T14:07:53.241Z,21.68
2017-05-04T14:10:23.580Z,22.22
2017-05-04T14:12:55.154Z,25.38
2017-05-04T14:15:25.500Z,22.44
2017-05-04T14:17:56.310Z,20.92
2017-05-04T14:20:28.816Z,20.92
2017-05-04T14:22:59.593Z,19.86
2017-05-04T14:25:32.735Z,19.88
2017-05-04T14:28:03.159Z,22.92
2017-05-04T14:30:34.209Z,19.10
2017-05-04T14:33:04.457Z,19.76
2017-05-04T14:35:37.022Z,19.72
2017-05-04T14:38:07.259Z,18.72
2017-05-04T14:40:37.718Z,19.46
2017-05-04T14:43:08.471Z,19.78
2017-05-04T14:45:40.302Z,18.46
2017-05-04T14:48:10.483Z,22.00
2017-05-04T14:50:41.780Z,25.08
2017-05-04T14:53:12.967Z,20.82
2017-05-04T14:55:43.235Z,23.58
2017-05-04T14:58:13.664Z,18.56
2017-05-04T15:00:45.936Z,18.14
2017-05-04T15:03:18.053Z,22.10
2017-05-04T15:05:49.839Z,17.40
2017-05-04T15:08:19.978Z,18.78
2017-05-04T15:10:50.381Z,19.66
2017-05-04T15:13:22.118Z,19.20
2017-05-04T15:15:54.001Z,28.72
2017-05-04T15:18:24.312Z,18.94
2017-05-04T15:20:57.000Z,20.66
2017-05-04T15:23:28.623Z,17.76
2017-05-04T15:26:00.242Z,18.82
2017-05-04T15:28:31.698Z,17.86
2017-05-04T15:31:02.203Z,18.34
2017-05-04T15:33:32.886Z,16.94
2017-05-04T15:36:03.141Z,17.50
2017-05-04T15:38:38.192Z,19.22
2017-05-04T15:41:08.802Z,16.52
2017-05-04T15:43:38.831Z,17.06
2017-05-04T15:48:46.650Z,18.86
2017-05-04T15:51:18.088Z,16.46
2017-05-04T15:53:48.638Z,16.92
2017-05-04T15:56:19.462Z,17.94
2017-05-04T15:58:49.551Z,19.40
2017-05-04T16:01:21.622Z,21.42
2017-05-04T16:03:55.205Z,16.88
2017-05-04T16:06:25.693Z,18.92
2017-05-04T16:08:56.990Z,17.20
2017-05-04T16:11:29.906Z,19.84
2017-05-04T16:14:02.352Z,17.18
2017-05-04T16:16:33.423Z,18.68
2017-05-04T16:19:03.433Z,19.58
2017-05-04T16:21:33.767Z,20.24
2017-05-04T16:24:04.116Z,21.62
2017-05-04T16:26:33.972Z,18.00
2017-05-04T16:29:05.821Z,18.08
2017-05-04T16:31:35.961Z,16.42
2017-05-04T16:34:06.222Z,18.20
2017-05-04T16:36:38.639Z,17.66
2017-05-04T16:39:08.666Z,18.40
2017-05-04T16:41:41.463Z,16.96
2017-05-04T16:44:13.124Z,18.24
2017-05-04T16:46:43.605Z,18.22
2017-05-04T16:49:14.385Z,17.38
2017-05-04T16:51:45.181Z,17.32
2017-05-04T16:54:15.905Z,15.02
2017-05-04T16:56:46.808Z,16.82
2017-05-04T16:59:16.788Z,16.86
2017-05-04T17:01:47.005Z,17.12
2017-05-04T17:04:16.989Z,16.52
2017-05-04T17:06:47.252Z,16.12
2017-05-04T17:09:17.740Z,16.74
2017-05-04T17:11:48.805Z,14.48
2017-05-04T17:14:19.550Z,16.90
2017-05-04T17:16:49.797Z,18.52
2017-05-04T17:19:19.776Z,17.42
2017-05-04T17:21:49.989Z,17.16
2017-05-04T17:24:20.085Z,15.82
2017-05-04T17:26:50.385Z,15.84
2017-05-04T17:29:20.588Z,16.84
2017-05-04T17:31:50.780Z,15.14
2017-05-04T17:34:20.772Z,16.50
2017-05-04T17:36:53.920Z,15.28
2017-05-04T17:39:24.844Z,16.24
2017-05-04T17:41:55.256Z,15.40
2017-05-04T17:44:25.849Z,15.18
2017-05-04T17:46:56.056Z,16.02
2017-05-04T17:49:26.033Z,15.06
2017-05-04T17:51:57.613Z,15.12
2017-05-04T17:54:27.605Z,14.30
2017-05-04T17:56:57.804Z,15.52
2017-05-04T17:59:28.881Z,13.88
2017-05-04T18:01:58.658Z,16.66
2017-05-04T18:04:29.595Z,20.36
2017-05-04T18:07:00.620Z,16.48
2017-05-04T18:09:31.191Z,21.72
2017-05-04T18:12:01.464Z,15.90
2017-05-04T18:14:32.206Z,13.66
2017-05-04T18:17:02.445Z,13.50
2017-05-04T18:19:33.049Z,14.38
2017-05-04T18:22:03.989Z,15.20
2017-05-04T18:24:35.077Z,15.38
2017-05-04T18:27:05.397Z,16.76
2017-05-04T18:29:35.352Z,14.96
2017-05-04T18:32:06.525Z,14.18
2017-05-04T18:34:37.329Z,13.98
2017-05-04T18:37:07.573Z,13.04
2017-05-04T18:39:37.572Z,13.06
2017-05-04T18:42:07.817Z,13.38
2017-05-04T18:44:39.613Z,14.38
2017-05-04T18:47:09.796Z,13.28
2017-05-04T18:49:39.773Z,14.74
2017-05-04T18:52:10.973Z,15.08
2017-05-04T18:54:41.799Z,14.06
2017-05-04T18:57:12.753Z,15.40
2017-05-04T18:59:42.785Z,15.30
2017-05-04T19:02:15.537Z,14.08
2017-05-04T19:04:46.229Z,15.66
2017-05-04T19:07:17.207Z,13.98
2017-05-04T19:09:47.193Z,14.02
2017-05-04T19:12:18.150Z,15.58
2017-05-04T19:14:48.129Z,16.36
2017-05-04T19:17:19.926Z,14.58
2017-05-04T19:19:49.898Z,13.66
2017-05-04T19:22:20.065Z,14.46
2017-05-04T19:24:49.743Z,13.18
2017-05-04T19:27:20.650Z,14.74
2017-05-04T19:29:50.679Z,13.22
2017-05-04T19:32:20.958Z,12.72
2017-05-04T19:34:51.255Z,12.00
2017-05-04T19:37:22.538Z,13.30
2017-05-04T19:39:52.523Z,12.24
2017-05-04T19:42:23.277Z,12.72
2017-05-04T19:44:53.990Z,13.06
2017-05-04T19:47:24.215Z,11.80
2017-05-04T19:49:54.200Z,12.48
2017-05-04T19:52:24.365Z,11.98
2017-05-04T19:54:55.409Z,13.62
2017-05-04T19:57:26.629Z,21.62
2017-05-04T19:59:56.575Z,14.14
2017-05-04T20:02:27.729Z,13.10
2017-05-04T20:04:57.720Z,20.30
2017-05-04T20:07:28.233Z,15.64
2017-05-04T20:09:59.489Z,12.70
2017-05-04T20:12:29.383Z,12.40
2017-05-04T20:14:59.203Z,12.50
2017-05-04T20:17:31.131Z,13.20
2017-05-04T20:20:01.182Z,13.30
2017-05-04T20:22:31.422Z,12.90
2017-05-04T20:25:03.337Z,12.72
2017-05-04T20:27:34.406Z,12.62
2017-05-04T20:30:04.410Z,12.00
2017-05-04T20:32:35.248Z,13.42
2017-05-04T20:35:05.233Z,12.82
2017-05-04T20:37:35.380Z,12.08
2017-05-04T20:40:05.366Z,12.08
2017-05-04T20:42:35.617Z,13.22
2017-05-04T20:45:05.609Z,12.42
2017-05-04T20:47:36.576Z,12.88
2017-05-04T20:50:06.551Z,11.20
2017-05-04T20:52:36.809Z,11.66
2017-05-04T20:55:07.557Z,13.00
2017-05-04T20:57:37.767Z,12.64
2017-05-04T21:00:07.751Z,12.64
2017-05-04T21:02:37.995Z,13.20
2017-05-04T21:05:09.646Z,13.96
2017-05-04T21:07:40.722Z,13.14
2017-05-04T21:10:10.822Z,13.42
2017-05-04T21:12:42.073Z,12.92
2017-05-04T21:15:12.063Z,14.00
2017-05-04T21:17:43.046Z,12.94
2017-05-04T21:20:13.068Z,18.06
2017-05-04T21:22:43.267Z,19.20
2017-05-04T21:25:14.239Z,18.90
2017-05-04T21:27:44.562Z,13.60
2017-05-04T21:30:14.599Z,14.16
2017-05-04T21:32:44.778Z,13.86
2017-05-04T21:35:14.752Z,13.62
2017-05-04T21:37:44.210Z,13.38
2017-05-04T21:40:14.208Z,13.38
2017-05-04T21:42:44.508Z,14.98
2017-05-04T21:45:14.523Z,14.28
2017-05-04T21:47:44.758Z,12.18
2017-05-04T21:50:14.763Z,13.68
2017-05-04T21:52:44.988Z,12.74
2017-05-04T21:55:14.973Z,13.16
2017-05-04T21:57:45.937Z,13.74
2017-05-04T22:00:16.005Z,13.58
2017-05-04T22:02:46.189Z,12.86
2017-05-04T22:05:16.216Z,13.22
2017-05-04T22:07:46.857Z,12.86
2017-05-04T22:10:18.019Z,13.08
2017-05-04T22:12:48.605Z,12.42
2017-05-04T22:15:19.313Z,13.06
2017-05-04T22:17:50.463Z,15.10
2017-05-04T22:20:19.681Z,12.42
2017-05-04T22:22:49.669Z,13.26
2017-05-04T22:25:20.463Z,18.30
2017-05-04T22:27:50.829Z,17.54
2017-05-04T22:30:20.841Z,17.18
2017-05-04T22:32:51.780Z,16.02
2017-05-04T22:35:22.501Z,13.78
2017-05-04T22:37:52.633Z,13.26
2017-05-04T22:40:23.368Z,13.18
2017-05-04T22:42:55.128Z,13.52
2017-05-04T22:45:25.849Z,15.32
2017-05-04T22:47:56.083Z,14.18
2017-05-04T22:50:27.811Z,14.36
2017-05-04T22:52:58.066Z,15.26
2017-05-04T22:55:28.039Z,15.76
2017-05-04T22:57:58.202Z,14.78
2017-05-04T23:00:28.181Z,15.76
2017-05-04T23:02:58.435Z,15.16
2017-05-04T23:05:28.450Z,14.98
2017-05-04T23:07:58.696Z,15.54
2017-05-04T23:10:28.658Z,15.82
2017-05-04T23:12:58.805Z,15.88
2017-05-04T23:15:28.796Z,16.24
2017-05-04T23:17:58.932Z,15.44
2017-05-04T23:20:29.684Z,15.00
2017-05-04T23:22:59.892Z,15.14
2017-05-04T23:25:29.869Z,15.60
2017-05-04T23:28:00.027Z,15.26
2017-05-04T23:30:30.019Z,15.48
2017-05-04T23:33:00.263Z,15.58
2017-05-04T23:35:31.184Z,15.72
2017-05-04T23:38:02.132Z,15.34
2017-05-04T23:40:32.907Z,15.10
2017-05-04T23:43:03.109Z,15.88
2017-05-04T23:45:33.815Z,15.28
2017-05-04T23:48:06.288Z,15.96
2017-05-04T23:50:38.290Z,14.52
2017-05-04T23:53:09.188Z,13.12
2017-05-04T23:55:39.190Z,13.04
2017-05-04T23:58:09.530Z,12.98
